createdAt,value
2018-08-07T00:00:21.896Z,24.97
2018-08-07T00:01:02.341Z,24.93
2018-08-07T00:01:42.746Z,24.9
2018-08-07T00:02:23.230Z,24.99
2018-08-07T00:03:03.526Z,24.93
2018-08-07T00:03:43.984Z,24.99
2018-08-07T00:04:24.438Z,25.01
2018-08-07T00:05:04.999Z,24.94
2018-08-07T00:05:45.483Z,24.94
2018-08-07T00:06:25.724Z,24.92
2018-08-07T00:07:06.160Z,25.05
2018-08-07T00:07:46.590Z,25.01
2018-08-07T00:08:27.225Z,25.11
2018-08-07T00:09:07.733Z,24.97
2018-08-07T00:09:48.057Z,25.01
2018-08-07T00:10:28.368Z,24.94
2018-08-07T00:11:08.822Z,24.93
2018-08-07T00:11:49.190Z,24.92
2018-08-07T00:12:29.631Z,25.01
2018-08-07T00:13:10.056Z,24.94
2018-08-07T00:13:50.576Z,24.87
2018-08-07T00:14:30.984Z,24.9
2018-08-07T00:15:11.307Z,25.01
2018-08-07T00:15:51.791Z,25.02
2018-08-07T00:16:32.203Z,25.07
2018-08-07T00:17:12.680Z,25.07
2018-08-07T00:17:53.172Z,25.04
2018-08-07T00:18:33.487Z,25.05
2018-08-07T00:19:13.860Z,25.04
2018-08-07T00:19:54.263Z,25.04
2018-08-07T00:20:34.749Z,24.92
2018-08-07T00:21:15.136Z,24.94
2018-08-07T00:21:55.498Z,24.93
2018-08-07T00:22:35.925Z,24.87
2018-08-07T00:23:16.450Z,24.86
2018-08-07T00:23:56.796Z,24.8
2018-08-07T00:24:37.268Z,24.74
2018-08-07T00:25:17.611Z,24.84
2018-08-07T00:25:57.977Z,24.77
2018-08-07T00:26:38.429Z,24.74
2018-08-07T00:27:18.830Z,24.67
2018-08-07T00:27:59.164Z,24.71
2018-08-07T00:28:39.535Z,24.67
2018-08-07T00:29:19.982Z,24.63
2018-08-07T00:30:00.513Z,24.66
2018-08-07T00:30:40.802Z,24.6
2018-08-07T00:31:21.222Z,24.56
2018-08-07T00:32:01.724Z,24.56
2018-08-07T00:32:42.050Z,24.56
2018-08-07T00:33:22.476Z,24.46
2018-08-07T00:34:02.892Z,24.52
2018-08-07T00:34:43.242Z,24.46
2018-08-07T00:35:23.699Z,24.42
2018-08-07T00:36:04.046Z,24.46
2018-08-07T00:36:44.434Z,24.36
2018-08-07T00:37:24.869Z,24.45
2018-08-07T00:38:05.290Z,24.37
2018-08-07T00:38:45.708Z,24.39
2018-08-07T00:39:26.097Z,24.34
2018-08-07T00:40:06.487Z,24.31
2018-08-07T00:40:46.901Z,24.3
2018-08-07T00:41:27.450Z,24.33
2018-08-07T00:42:07.789Z,24.29
2018-08-07T00:42:48.148Z,24.31
2018-08-07T00:43:28.602Z,24.26
2018-08-07T00:44:08.985Z,24.21
2018-08-07T00:44:49.403Z,24.23
2018-08-07T00:45:29.919Z,24.18
2018-08-07T00:46:10.255Z,24.26
2018-08-07T00:46:50.636Z,24.16
2018-08-07T00:47:31.042Z,24.16
2018-08-07T00:48:11.422Z,24.18
2018-08-07T00:48:51.871Z,24.16
2018-08-07T00:49:32.292Z,24.09
2018-08-07T00:50:12.640Z,24.08
2018-08-07T00:50:53.096Z,24.11
2018-08-07T00:51:33.446Z,24.11
2018-08-07T00:52:13.869Z,24.04
2018-08-07T00:52:54.267Z,23.99
2018-08-07T00:54:31.945Z,24.15
2018-08-07T00:55:12.021Z,24.05
2018-08-07T00:55:52.426Z,24.05
2018-08-07T00:56:32.837Z,24.12
2018-08-07T00:57:13.191Z,24.09
2018-08-07T00:57:53.606Z,23.96
2018-08-07T00:58:34.021Z,24.04
2018-08-07T00:59:14.415Z,23.89
2018-08-07T01:00:54.757Z,23.86
2018-08-07T01:01:34.580Z,23.75
2018-08-07T01:02:15.031Z,23.79
2018-08-07T01:02:55.513Z,23.79
2018-08-07T01:10:56.342Z,23.39
2018-08-07T01:11:37.142Z,23.22
2018-08-07T01:12:17.353Z,23.18
2018-08-07T01:12:58.121Z,23.04
2018-08-07T01:13:38.547Z,23.04
2018-08-07T01:14:18.975Z,22.91
2018-08-07T01:14:59.468Z,22.91
2018-08-07T01:16:44.420Z,22.94
2018-08-07T01:17:24.815Z,22.82
2018-08-07T01:18:05.203Z,22.84
2018-08-07T01:18:45.634Z,22.72
2018-08-07T01:19:26.021Z,22.81
2018-08-07T01:20:06.477Z,22.7
2018-08-07T01:20:46.867Z,22.69
2018-08-07T01:21:27.219Z,22.61
2018-08-07T01:23:24.375Z,22.66
2018-08-07T01:24:04.332Z,22.63
2018-08-07T01:24:44.756Z,22.59
2018-08-07T01:25:25.178Z,22.51
2018-08-07T01:26:05.707Z,22.52
2018-08-07T01:26:47.934Z,22.49
2018-08-07T01:27:29.206Z,22.51
2018-08-07T01:30:45.848Z,22.45
2018-08-07T01:31:26.196Z,22.45
2018-08-07T01:32:06.700Z,22.48
2018-08-07T01:32:46.976Z,22.59
2018-08-07T01:33:27.433Z,22.49
2018-08-07T01:34:07.864Z,22.48
2018-08-07T01:34:48.170Z,22.51
2018-08-07T01:35:28.643Z,22.48
2018-08-07T01:36:09.089Z,22.52
2018-08-07T01:36:49.424Z,22.42
2018-08-07T01:37:29.816Z,22.48
2018-08-07T01:38:10.231Z,22.41
2018-08-07T01:38:50.903Z,22.33
2018-08-07T01:39:31.510Z,22.36
2018-08-07T01:40:13.797Z,22.19
2018-08-07T01:40:54.231Z,22.2
2018-08-07T01:41:34.639Z,22.19
2018-08-07T01:42:15.079Z,22.27
2018-08-07T01:42:55.506Z,22.17
2018-08-07T01:43:35.968Z,22.21
2018-08-07T01:44:16.541Z,22.27
2018-08-07T01:48:38.305Z,22.39
2018-08-07T01:49:17.810Z,22.35
2018-08-07T01:49:58.222Z,22.35
2018-08-07T01:50:38.603Z,22.3
2018-08-07T01:51:18.982Z,22.35
2018-08-07T01:51:59.428Z,22.23
2018-08-07T01:52:39.771Z,22.27
2018-08-07T01:53:20.230Z,22.3
2018-08-07T01:54:00.579Z,22.29
2018-08-07T01:54:40.972Z,22.29
2018-08-07T01:55:21.399Z,22.3
2018-08-07T01:56:01.833Z,22.29
2018-08-07T01:56:42.204Z,22.24
2018-08-07T01:57:22.649Z,22.26
2018-08-07T01:58:02.986Z,22.26
2018-08-07T01:58:43.346Z,22.19
2018-08-07T01:59:23.758Z,22.23
2018-08-07T02:00:04.232Z,22.17
2018-08-07T02:00:44.616Z,22.21
2018-08-07T02:01:24.984Z,22.15
2018-08-07T02:04:57.146Z,22.05
2018-08-07T02:17:31.047Z,21.9
2018-08-07T02:19:27.468Z,21.82
2018-08-07T02:21:27.741Z,21.75
2018-08-07T02:22:08.714Z,21.79
2018-08-07T02:22:49.120Z,21.67
2018-08-07T02:23:29.511Z,21.71
2018-08-07T02:24:10.164Z,21.68
2018-08-07T02:24:50.416Z,21.73
2018-08-07T02:25:30.864Z,21.79
2018-08-07T02:26:11.252Z,21.79
2018-08-07T02:26:51.724Z,21.79
2018-08-07T02:27:33.663Z,21.68
2018-08-07T02:28:13.965Z,21.74
2018-08-07T02:28:55.221Z,21.63
2018-08-07T02:29:39.076Z,21.63
2018-08-07T02:31:27.798Z,21.46
2018-08-07T02:32:20.240Z,21.4
2018-08-07T02:40:24.791Z,21.13
2018-08-07T02:41:13.575Z,21.13
2018-08-07T02:41:53.897Z,21.13
2018-08-07T02:42:34.343Z,21.13
2018-08-07T02:43:14.752Z,21.13
2018-08-07T02:43:55.484Z,21.13
2018-08-07T02:44:35.887Z,21.06
2018-08-07T02:45:20.743Z,21.05
2018-08-07T02:46:01.243Z,21.11
2018-08-07T02:46:41.959Z,21.01
2018-08-07T02:47:22.367Z,21.01
2018-08-07T02:48:02.969Z,21.01
2018-08-07T02:48:43.889Z,20.98
2018-08-07T02:49:24.304Z,20.94
2018-08-07T02:50:04.738Z,20.97
2018-08-07T02:50:45.177Z,20.97
2018-08-07T02:51:25.544Z,20.93
2018-08-07T02:52:06.028Z,20.96
2018-08-07T02:52:46.400Z,20.97
2018-08-07T02:53:26.756Z,20.96
2018-08-07T02:54:07.194Z,20.98
2018-08-07T02:54:47.557Z,20.98
2018-08-07T03:04:12.620Z,21.27
2018-08-07T03:04:55.741Z,21.21
2018-08-07T03:05:36.105Z,21.21
2018-08-07T03:06:18.472Z,21.27
2018-08-07T03:06:58.742Z,21.31
2018-08-07T03:07:39.161Z,21.38
2018-08-07T03:08:19.546Z,21.38
2018-08-07T03:08:59.994Z,21.33
2018-08-07T03:09:40.406Z,21.4
2018-08-07T03:10:20.771Z,21.33
2018-08-07T03:11:01.864Z,21.42
2018-08-07T03:13:57.022Z,21.33
2018-08-07T03:14:36.732Z,21.27
2018-08-07T03:15:17.091Z,21.27
2018-08-07T03:15:57.515Z,21.31
2018-08-07T03:16:38.122Z,21.36
2018-08-07T03:17:18.385Z,21.31
2018-08-07T03:17:58.781Z,21.36
2018-08-07T03:18:39.156Z,21.33
2018-08-07T03:19:19.604Z,21.36
2018-08-07T03:19:59.992Z,21.34
2018-08-07T03:20:40.606Z,21.27
2018-08-07T03:21:21.059Z,21.28
2018-08-07T03:22:01.505Z,21.3
2018-08-07T03:22:41.849Z,21.33
2018-08-07T03:23:22.348Z,21.28
2018-08-07T03:24:02.640Z,21.27
2018-08-07T03:24:43.056Z,21.27
2018-08-07T03:25:23.460Z,21.24
2018-08-07T03:26:03.866Z,21.21
2018-08-07T03:26:44.285Z,21.19
2018-08-07T03:27:24.666Z,21.26
2018-08-07T03:29:07.673Z,21.24
2018-08-07T03:29:47.955Z,21.22
2018-08-07T03:30:28.357Z,21.24
2018-08-07T03:31:08.728Z,21.37
2018-08-07T03:31:49.551Z,21.38
2018-08-07T03:32:29.895Z,21.34
2018-08-07T03:33:10.346Z,21.38
2018-08-07T03:34:57.673Z,21.43
2018-08-07T03:35:38.538Z,21.48
2018-08-07T03:36:18.876Z,21.4
2018-08-07T03:36:59.309Z,21.36
2018-08-07T03:37:39.788Z,21.36
2018-08-07T03:38:20.091Z,21.31
2018-08-07T03:39:00.491Z,21.33
2018-08-07T03:39:41.009Z,21.33
2018-08-07T03:40:21.392Z,21.28
2018-08-07T03:42:18.813Z,21.26
2018-08-07T03:42:59.270Z,21.31
2018-08-07T03:43:39.677Z,21.26
2018-08-07T03:44:20.114Z,21.26
2018-08-07T03:45:00.511Z,21.18
2018-08-07T03:45:40.944Z,21.26
2018-08-07T03:46:21.298Z,21.22
2018-08-07T03:47:01.691Z,21.28
2018-08-07T03:47:42.378Z,21.12
2018-08-07T03:54:21.163Z,21.12
2018-08-07T03:55:10.859Z,21.16
2018-08-07T03:55:52.150Z,21.13
2018-08-07T03:56:32.525Z,21.16
2018-08-07T03:57:12.929Z,21.09
2018-08-07T03:57:53.357Z,21.18
2018-08-07T03:58:33.744Z,21.22
2018-08-07T03:59:14.148Z,21.16
2018-08-07T03:59:54.561Z,21.13
2018-08-07T04:00:34.961Z,21.26
2018-08-07T04:01:15.565Z,21.22
2018-08-07T04:01:55.795Z,21.21
2018-08-07T04:02:36.191Z,21.18
2018-08-07T04:03:16.680Z,21.13
2018-08-07T04:03:57.501Z,21.15
2018-08-07T04:07:26.108Z,21.15
2018-08-07T04:08:06.914Z,21.18
2018-08-07T04:08:48.767Z,21.15
2018-08-07T04:09:29.200Z,21.12
2018-08-07T04:10:09.556Z,21.15
2018-08-07T04:10:49.956Z,21.15
2018-08-07T04:11:30.366Z,21.16
2018-08-07T04:12:10.731Z,21.12
2018-08-07T04:12:51.313Z,21.13
2018-08-07T04:13:31.696Z,21.06
2018-08-07T04:14:12.078Z,21.01
2018-08-07T04:14:52.456Z,21.05
2018-08-07T04:15:32.859Z,21.01
2018-08-07T04:16:13.335Z,21.01
2018-08-07T04:16:53.697Z,21.12
2018-08-07T04:17:34.113Z,21.05
2018-08-07T04:18:14.515Z,21.19
2018-08-07T04:18:54.924Z,21.16
2018-08-07T04:19:35.323Z,21.19
2018-08-07T04:20:15.778Z,21.18
2018-08-07T04:20:56.117Z,21.18
2018-08-07T04:21:36.563Z,21.13
2018-08-07T04:22:16.955Z,21.21
2018-08-07T04:22:57.413Z,21.16
2018-08-07T04:23:37.742Z,21.21
2018-08-07T04:24:18.157Z,21.22
2018-08-07T04:24:58.606Z,21.27
2018-08-07T04:25:38.998Z,21.3
2018-08-07T04:26:19.385Z,21.26
2018-08-07T04:26:59.793Z,21.37
2018-08-07T05:11:15.512Z,24.9
2018-08-07T05:14:58.463Z,25.36
2018-08-07T05:15:39.178Z,25.48
2018-08-07T05:16:19.555Z,25.63
2018-08-07T05:16:59.962Z,25.69
2018-08-07T05:17:40.418Z,25.89
2018-08-07T05:18:21.234Z,25.91
2018-08-07T05:19:02.748Z,26.06
2018-08-07T05:21:23.363Z,26.41
2018-08-07T05:22:15.618Z,26.51
2018-08-07T05:23:08.862Z,26.64
2018-08-07T05:24:04.324Z,26.69
2018-08-07T05:24:57.322Z,26.88
2018-08-07T05:25:56.392Z,26.97
2018-08-07T05:26:56.104Z,27.18
2018-08-07T05:27:55.489Z,27.35
2018-08-07T05:28:49.806Z,27.55
2018-08-07T05:29:44.267Z,27.76
2018-08-07T05:30:39.396Z,27.88
2018-08-07T05:31:31.588Z,28.05
2018-08-07T05:32:24.292Z,28.08
2018-08-07T05:33:24.655Z,28.2
2018-08-07T05:34:26.066Z,28.09
2018-08-07T05:35:22.605Z,28.15
2018-08-07T05:36:20.436Z,28.06
2018-08-07T05:37:12.751Z,28.01
2018-08-07T05:38:05.165Z,28.11
2018-08-07T05:39:00.020Z,28.17
2018-08-07T05:39:52.482Z,28.2
2018-08-07T05:40:44.899Z,28.36
2018-08-07T05:42:03.363Z,28.5
2018-08-07T05:43:40.789Z,28.88
2018-08-07T05:44:37.440Z,29.03
2018-08-07T05:45:40.375Z,29.11
2018-08-07T05:46:48.270Z,29.35
2018-08-07T05:47:45.842Z,29.57
2018-08-07T05:48:54.990Z,29.79
2018-08-07T05:50:02.681Z,29.94
2018-08-07T05:51:36.953Z,30.26
2018-08-07T05:52:17.359Z,30.21
2018-08-07T05:52:57.833Z,30.28
2018-08-07T05:53:38.180Z,30.51
2018-08-07T05:54:18.688Z,30.59
2018-08-07T05:54:59.223Z,30.72
2018-08-07T05:55:39.633Z,30.67
2018-08-07T05:56:20.373Z,30.82
2018-08-07T05:57:00.844Z,30.75
2018-08-07T05:57:41.258Z,30.63
2018-08-07T05:58:21.726Z,30.7
2018-08-07T05:59:02.129Z,30.81
2018-08-07T05:59:42.646Z,30.81
2018-08-07T06:00:23.205Z,30.83
2018-08-07T06:01:05.327Z,30.97
2018-08-07T06:01:45.432Z,30.97
2018-08-07T06:02:25.867Z,31.1
2018-08-07T06:03:06.311Z,31.23
2018-08-07T06:03:46.848Z,31.27
2018-08-07T06:04:28.144Z,31.38
2018-08-07T06:05:08.556Z,31.5
2018-08-07T06:05:49.052Z,31.37
2018-08-07T06:06:31.057Z,31.25
2018-08-07T06:07:12.171Z,31.2
2018-08-07T06:07:52.542Z,31.13
2018-08-07T06:08:33.208Z,31.1
2018-08-07T06:09:14.513Z,31.19
2018-08-07T06:09:54.967Z,31.3
2018-08-07T06:10:35.516Z,31.35
2018-08-07T06:11:15.838Z,31.52
2018-08-07T06:11:56.324Z,31.62
2018-08-07T06:12:36.739Z,31.74
2018-08-07T06:13:17.244Z,31.78
2018-08-07T06:13:57.745Z,31.85
2018-08-07T06:14:38.246Z,31.82
2018-08-07T06:15:20.196Z,31.87
2018-08-07T06:16:00.231Z,31.88
2018-08-07T06:16:40.999Z,31.92
2018-08-07T06:17:21.525Z,31.99
2018-08-07T06:18:02.525Z,32.05
2018-08-07T06:18:42.676Z,31.97
2018-08-07T06:19:24.365Z,32.09
2018-08-07T06:20:04.848Z,32.29
2018-08-07T06:20:45.620Z,32.36
2018-08-07T06:21:26.279Z,32.44
2018-08-07T06:22:06.806Z,32.54
2018-08-07T06:22:47.451Z,32.53
2018-08-07T06:23:27.917Z,32.63
2018-08-07T06:24:08.562Z,32.51
2018-08-07T06:24:49.249Z,32.65
2018-08-07T06:25:29.685Z,32.66
2018-08-07T06:26:10.221Z,32.51
2018-08-07T06:26:50.659Z,32.4
2018-08-07T06:27:31.070Z,32.16
2018-08-07T06:28:11.877Z,32.09
2018-08-07T06:28:53.199Z,31.85
2018-08-07T06:29:33.107Z,31.91
2018-08-07T06:30:13.612Z,31.88
2018-08-07T06:30:54.084Z,31.54
2018-08-07T06:31:35.486Z,31.42
2018-08-07T06:32:15.874Z,31.27
2018-08-07T06:32:56.311Z,31.31
2018-08-07T06:33:36.852Z,31.3
2018-08-07T06:34:17.344Z,31.1
2018-08-07T06:34:57.820Z,30.97
2018-08-07T06:35:38.245Z,30.94
2018-08-07T06:36:18.670Z,30.88
2018-08-07T06:37:00.950Z,31.01
2018-08-07T06:37:41.468Z,30.96
2018-08-07T06:38:21.832Z,31
2018-08-07T06:39:02.544Z,31.09
2018-08-07T06:39:42.730Z,31.16
2018-08-07T06:40:23.203Z,31.22
2018-08-07T06:41:03.886Z,31.45
2018-08-07T06:41:44.337Z,31.56
2018-08-07T06:42:25.395Z,31.62
2018-08-07T06:43:05.943Z,31.85
2018-08-07T06:43:46.334Z,31.91
2018-08-07T06:44:26.725Z,32.19
2018-08-07T06:45:07.165Z,32.31
2018-08-07T06:45:47.709Z,32.53
2018-08-07T06:46:28.130Z,32.69
2018-08-07T06:47:08.611Z,32.73
2018-08-07T06:47:49.117Z,32.88
2018-08-07T06:48:29.539Z,32.96
2018-08-07T06:49:10.725Z,32.99
2018-08-07T06:49:51.146Z,33
2018-08-07T06:50:31.599Z,33.07
2018-08-07T06:51:12.387Z,32.96
2018-08-07T06:51:52.595Z,32.99
2018-08-07T06:52:33.032Z,32.93
2018-08-07T06:53:13.457Z,32.9
2018-08-07T06:53:54.205Z,32.88
2018-08-07T06:54:34.400Z,32.88
2018-08-07T06:55:14.972Z,33.02
2018-08-07T06:55:55.386Z,33.09
2018-08-07T06:56:35.783Z,33.09
2018-08-07T06:57:16.300Z,33.12
2018-08-07T06:57:56.639Z,33.33
2018-08-07T06:58:37.696Z,33.31
2018-08-07T06:59:17.762Z,33.37
2018-08-07T06:59:58.250Z,33.18
2018-08-07T07:00:38.797Z,33.15
2018-08-07T07:01:19.209Z,33
2018-08-07T07:01:59.825Z,32.78
2018-08-07T07:02:40.259Z,32.81
2018-08-07T07:03:20.662Z,32.76
2018-08-07T07:04:01.079Z,32.69
2018-08-07T07:04:41.516Z,32.63
2018-08-07T07:05:22.016Z,32.62
2018-08-07T07:06:02.531Z,32.61
2018-08-07T07:06:42.852Z,32.66
2018-08-07T07:07:23.411Z,32.65
2018-08-07T07:08:03.742Z,32.66
2018-08-07T07:08:44.280Z,32.8
2018-08-07T07:09:24.904Z,32.78
2018-08-07T07:10:05.637Z,32.87
2018-08-07T07:10:45.990Z,32.93
2018-08-07T07:11:26.384Z,33.05
2018-08-07T07:12:06.789Z,33.05
2018-08-07T07:12:48.886Z,33.03
2018-08-07T07:13:29.344Z,33.09
2018-08-07T07:14:09.691Z,33.03
2018-08-07T07:14:50.787Z,33.02
2018-08-07T07:15:31.273Z,33.05
2018-08-07T07:16:11.800Z,33.03
2018-08-07T07:16:52.074Z,33.14
2018-08-07T07:17:32.531Z,33.24
2018-08-07T07:18:12.891Z,33.4
2018-08-07T07:18:53.346Z,33.53
2018-08-07T07:19:33.798Z,33.59
2018-08-07T07:20:14.234Z,33.72
2018-08-07T07:20:54.727Z,33.84
2018-08-07T07:21:35.094Z,34.05
2018-08-07T07:22:15.643Z,34.12
2018-08-07T07:22:55.976Z,34.16
2018-08-07T07:23:36.446Z,34.19
2018-08-07T07:24:16.928Z,34.26
2018-08-07T07:24:57.294Z,34.27
2018-08-07T07:26:44.140Z,34.26
2018-08-07T07:27:37.382Z,34.21
2018-08-07T07:28:31.021Z,34.16
2018-08-07T07:29:25.844Z,33.89
2018-08-07T07:30:19.512Z,33.92
2018-08-07T07:32:50.896Z,33.74
2018-08-07T07:33:53.461Z,33.75
2018-08-07T07:35:04.322Z,33.68
2018-08-07T07:39:39.581Z,33.52
2018-08-07T07:40:20.009Z,33.5
2018-08-07T07:41:00.440Z,33.62
2018-08-07T07:41:40.895Z,33.59
2018-08-07T07:42:21.342Z,33.7
2018-08-07T07:43:01.990Z,33.71
2018-08-07T07:43:42.277Z,33.84
2018-08-07T07:44:22.715Z,33.93
2018-08-07T07:45:03.098Z,34.01
2018-08-07T07:45:43.562Z,34.11
2018-08-07T07:46:23.932Z,34
2018-08-07T07:47:04.366Z,33.96
2018-08-07T07:47:44.755Z,33.89
2018-08-07T07:48:25.182Z,33.75
2018-08-07T07:49:05.620Z,33.74
2018-08-07T07:49:46.077Z,33.71
2018-08-07T07:50:26.451Z,33.6
2018-08-07T07:51:06.903Z,33.59
2018-08-07T07:51:47.307Z,33.62
2018-08-07T07:52:27.746Z,33.63
2018-08-07T07:53:08.173Z,33.63
2018-08-07T07:53:49.051Z,33.77
2018-08-07T07:54:29.457Z,33.89
2018-08-07T07:55:10.048Z,33.9
2018-08-07T07:55:50.770Z,34
2018-08-07T07:56:31.192Z,34.09
2018-08-07T07:57:11.674Z,34.11
2018-08-07T07:57:52.141Z,34.09
2018-08-07T07:58:32.547Z,34.14
2018-08-07T07:59:13.422Z,34.31
2018-08-07T07:59:53.560Z,34.42
2018-08-07T08:00:34.626Z,34.52
2018-08-07T08:01:15.080Z,34.71
2018-08-07T08:01:55.486Z,34.73
2018-08-07T08:02:35.996Z,34.8
2018-08-07T08:03:17.145Z,34.86
2018-08-07T08:03:57.528Z,34.75
2018-08-07T08:04:37.959Z,34.9
2018-08-07T08:05:18.516Z,34.8
2018-08-07T08:05:58.981Z,34.69
2018-08-07T08:06:39.357Z,34.63
2018-08-07T08:07:20.241Z,34.73
2018-08-07T08:08:03.761Z,34.76
2018-08-07T08:08:43.999Z,34.91
2018-08-07T08:09:25.872Z,35.03
2018-08-07T08:10:06.179Z,35.02
2018-08-07T08:10:46.782Z,35
2018-08-07T08:12:52.848Z,35.17
2018-08-07T08:13:45.317Z,35.18
2018-08-07T08:16:10.999Z,35.37
2018-08-07T08:18:05.749Z,35.07
2018-08-07T08:18:58.308Z,34.84
2018-08-07T08:19:41.084Z,34.67
2018-08-07T08:20:21.707Z,34.8
2018-08-07T08:21:02.248Z,34.87
2018-08-07T08:21:42.679Z,34.93
2018-08-07T08:22:23.297Z,35.05
2018-08-07T08:23:03.725Z,35.09
2018-08-07T08:23:44.087Z,35.12
2018-08-07T08:24:24.566Z,35.2
2018-08-07T08:25:05.030Z,35.31
2018-08-07T08:25:45.494Z,35.36
2018-08-07T08:26:26.229Z,35.47
2018-08-07T08:27:06.659Z,35.46
2018-08-07T08:27:47.064Z,35.55
2018-08-07T08:28:27.515Z,35.8
2018-08-07T08:29:08.079Z,35.8
2018-08-07T08:29:48.418Z,35.92
2018-08-07T08:30:28.742Z,36.08
2018-08-07T08:31:09.195Z,36.15
2018-08-07T08:31:49.682Z,36.19
2018-08-07T08:32:30.121Z,36.43
2018-08-07T08:33:10.592Z,36.43
2018-08-07T08:33:51.052Z,36.6
2018-08-07T08:34:31.433Z,36.52
2018-08-07T08:35:11.896Z,36.48
2018-08-07T08:35:52.231Z,36.52
2018-08-07T08:36:33.275Z,36.34
2018-08-07T08:37:13.296Z,36.19
2018-08-07T08:37:54.273Z,36.11
2018-08-07T08:38:34.267Z,35.99
2018-08-07T08:39:15.297Z,36.12
2018-08-07T08:39:55.343Z,36.23
2018-08-07T08:40:36.784Z,36.27
2018-08-07T08:41:17.266Z,36.53
2018-08-07T08:41:57.592Z,36.56
2018-08-07T08:42:38.107Z,36.6
2018-08-07T08:43:18.573Z,36.6
2018-08-07T08:43:58.993Z,36.57
2018-08-07T08:44:39.386Z,36.56
2018-08-07T08:45:19.820Z,36.67
2018-08-07T08:46:00.202Z,36.69
2018-08-07T08:46:40.734Z,36.72
2018-08-07T08:47:21.065Z,36.71
2018-08-07T08:48:01.690Z,36.74
2018-08-07T08:48:42.107Z,36.71
2018-08-07T08:49:22.598Z,36.67
2018-08-07T08:50:02.944Z,36.79
2018-08-07T08:50:43.346Z,36.83
2018-08-07T08:51:23.911Z,37.05
2018-08-07T08:52:04.313Z,37.21
2018-08-07T08:52:44.754Z,37.34
2018-08-07T08:53:25.186Z,37.38
2018-08-07T08:54:05.704Z,37.42
2018-08-07T08:54:46.023Z,37.5
2018-08-07T08:55:26.782Z,37.43
2018-08-07T08:56:06.801Z,37.46
2018-08-07T08:56:47.213Z,37.46
2018-08-07T08:57:27.583Z,37.63
2018-08-07T08:58:08.808Z,37.5
2018-08-07T08:58:48.577Z,37.34
2018-08-07T08:59:29.200Z,37.28
2018-08-07T09:00:09.612Z,37.15
2018-08-07T09:00:50.136Z,37.12
2018-08-07T09:01:30.753Z,37.31
2018-08-07T09:02:11.208Z,37.47
2018-08-07T09:02:51.632Z,37.5
2018-08-07T09:03:32.384Z,37.56
2018-08-07T09:04:12.826Z,37.47
2018-08-07T09:04:53.348Z,37.54
2018-08-07T09:05:33.692Z,37.5
2018-08-07T09:06:14.038Z,37.5
2018-08-07T09:06:54.451Z,37.56
2018-08-07T09:07:34.904Z,37.56
2018-08-07T09:08:15.283Z,37.7
2018-08-07T09:08:55.671Z,37.69
2018-08-07T09:09:36.143Z,37.58
2018-08-07T09:10:16.612Z,37.54
2018-08-07T09:10:57.022Z,37.47
2018-08-07T09:11:37.459Z,37.42
2018-08-07T09:12:18.240Z,37.35
2018-08-07T09:12:58.671Z,37.34
2018-08-07T09:13:39.064Z,37.38
2018-08-07T09:14:19.581Z,37.33
2018-08-07T09:15:00.001Z,37.38
2018-08-07T09:15:40.458Z,37.58
2018-08-07T09:16:20.885Z,37.65
2018-08-07T09:17:01.309Z,37.75
2018-08-07T09:17:41.826Z,38.02
2018-08-07T09:18:22.129Z,38.3
2018-08-07T09:19:02.614Z,38.49
2018-08-07T09:19:43.018Z,38.63
2018-08-07T09:20:24.689Z,38.58
2018-08-07T09:21:04.538Z,38.65
2018-08-07T09:21:44.968Z,38.79
2018-08-07T09:22:25.366Z,38.97
2018-08-07T09:23:05.825Z,39.01
2018-08-07T09:23:46.217Z,39.09
2018-08-07T09:24:26.641Z,39.09
2018-08-07T09:25:06.990Z,38.98
2018-08-07T09:25:47.708Z,38.86
2018-08-07T09:26:27.909Z,38.78
2018-08-07T09:27:08.293Z,38.78
2018-08-07T09:27:48.751Z,38.98
2018-08-07T09:28:29.156Z,38.81
2018-08-07T09:29:09.550Z,38.67
2018-08-07T09:29:49.980Z,38.53
2018-08-07T09:30:30.350Z,38.59
2018-08-07T09:31:10.876Z,38.56
2018-08-07T09:31:51.369Z,38.63
2018-08-07T09:32:31.679Z,38.77
2018-08-07T09:33:12.108Z,38.95
2018-08-07T09:33:52.555Z,39.05
2018-08-07T09:34:33.061Z,38.97
2018-08-07T09:35:13.422Z,38.84
2018-08-07T09:35:53.876Z,38.95
2018-08-07T09:36:34.303Z,39.05
2018-08-07T09:37:14.759Z,39.1
2018-08-07T09:37:55.101Z,39.24
2018-08-07T09:38:35.799Z,39.54
2018-08-07T09:39:16.087Z,39.8
2018-08-07T09:39:56.868Z,39.84
2018-08-07T09:40:37.658Z,39.99
2018-08-07T09:41:17.775Z,39.92
2018-08-07T09:41:58.256Z,39.85
2018-08-07T09:42:38.755Z,39.81
2018-08-07T09:43:19.332Z,39.76
2018-08-07T09:43:59.882Z,39.87
2018-08-07T09:44:40.403Z,40.03
2018-08-07T09:45:20.850Z,40.21
2018-08-07T09:46:01.339Z,40.44
2018-08-07T09:46:41.822Z,40.48
2018-08-07T09:47:22.462Z,40.58
2018-08-07T09:48:02.640Z,40.66
2018-08-07T09:48:43.137Z,40.66
2018-08-07T09:49:23.487Z,40.64
2018-08-07T09:50:03.926Z,40.67
2018-08-07T09:50:44.491Z,40.66
2018-08-07T09:51:25.105Z,40.42
2018-08-07T09:52:05.892Z,40.09
2018-08-07T09:52:47.001Z,39.97
2018-08-07T09:53:27.993Z,39.76
2018-08-07T09:54:12.173Z,39.61
2018-08-07T09:54:52.913Z,39.61
2018-08-07T09:56:48.715Z,39.81
2018-08-07T09:57:43.089Z,40.02
2018-08-07T09:58:35.675Z,40.18
2018-08-07T09:59:29.510Z,40.26
2018-08-07T10:00:24.270Z,40.26
2018-08-07T10:01:16.926Z,40.07
2018-08-07T10:02:11.534Z,39.8
2018-08-07T10:03:12.038Z,39.68
2018-08-07T10:06:01.413Z,40.11
2018-08-07T10:07:03.640Z,40.39
2018-08-07T10:08:02.004Z,40.48
2018-08-07T10:18:50.739Z,40.72
2018-08-07T10:20:33.085Z,41.07
2018-08-07T10:21:30.854Z,41.28
2018-08-07T10:22:25.706Z,41.44
2018-08-07T10:23:33.835Z,41.76
2018-08-07T10:24:30.561Z,41.95
2018-08-07T10:25:32.369Z,42.19
2018-08-07T10:26:26.587Z,42.17
2018-08-07T10:27:35.290Z,42.36
2018-08-07T10:28:36.677Z,42.61
2018-08-07T11:07:12.123Z,45.04
2018-08-07T11:08:06.681Z,45.16
2018-08-07T11:09:00.908Z,45.16
2018-08-07T11:10:01.360Z,45.19
2018-08-07T11:11:00.486Z,45.31
2018-08-07T11:11:57.226Z,45.17
2018-08-07T11:12:51.718Z,45.16
2018-08-07T11:13:44.295Z,45.42
2018-08-07T11:14:37.816Z,45.34
2018-08-07T11:16:01.445Z,45.42
2018-08-07T11:17:06.215Z,45.41
2018-08-07T11:18:10.604Z,45.41
2018-08-07T11:19:10.622Z,45.32
2018-08-07T11:20:54.571Z,45.39
2018-08-07T11:21:50.867Z,45.58
2018-08-07T11:23:04.709Z,45.65
2018-08-07T11:25:45.684Z,45.69
2018-08-07T11:26:44.054Z,45.69
2018-08-07T11:27:41.773Z,45.57
2018-08-07T11:28:37.101Z,45.42
2018-08-07T11:29:39.845Z,45.24
2018-08-07T11:31:17.347Z,45.38
2018-08-07T11:32:31.555Z,45.44
2018-08-07T11:35:49.191Z,45.95
2018-08-07T11:48:48.798Z,45.19
2018-08-07T11:50:45.961Z,45.38
2018-08-07T11:51:27.148Z,45.41
2018-08-07T11:52:07.587Z,45.41
2018-08-07T11:52:47.970Z,45.54
2018-08-07T11:53:29.833Z,45.46
2018-08-07T11:54:10.740Z,45.38
2018-08-07T11:54:51.216Z,45.42
2018-08-07T11:55:31.614Z,45.45
2018-08-07T11:56:12.644Z,45.42
2018-08-07T11:56:53.000Z,45.46
2018-08-07T11:57:33.999Z,45.42
2018-08-07T11:58:14.977Z,45.19
2018-08-07T11:58:55.395Z,45.16
2018-08-07T11:59:35.992Z,44.97
2018-08-07T12:00:16.512Z,44.98
2018-08-07T12:00:57.251Z,45.05
2018-08-07T12:01:40.728Z,45.1
2018-08-07T12:02:23.993Z,45.11
2018-08-07T12:03:04.935Z,44.97
2018-08-07T12:03:46.048Z,44.97
2018-08-07T12:04:26.521Z,44.94
2018-08-07T12:05:07.297Z,45.05
2018-08-07T12:05:47.978Z,45.05
2018-08-07T12:06:28.515Z,45.07
2018-08-07T12:07:08.850Z,45.15
2018-08-07T12:07:49.427Z,45.2
2018-08-07T12:08:30.053Z,45.22
2018-08-07T12:09:10.444Z,45.44
2018-08-07T12:09:51.005Z,45.46
2018-08-07T12:10:32.725Z,45.19
2018-08-07T12:11:12.973Z,45.2
2018-08-07T12:11:59.433Z,45
2018-08-07T12:12:40.129Z,44.78
2018-08-07T12:13:20.175Z,44.5
2018-08-07T12:14:01.108Z,44.44
2018-08-07T12:14:42.401Z,44.53
2018-08-07T12:15:23.651Z,44.4
2018-08-07T12:16:07.148Z,44.35
2018-08-07T12:16:47.688Z,44.49
2018-08-07T12:17:28.101Z,44.46
2018-08-07T12:18:08.517Z,44.49
2018-08-07T12:18:49.198Z,44.64
2018-08-07T12:19:30.623Z,44.85
2018-08-07T12:20:11.095Z,44.81
2018-08-07T12:20:52.544Z,44.88
2018-08-07T12:21:35.967Z,44.85
2018-08-07T12:22:40.059Z,44.76
2018-08-07T12:23:20.551Z,44.72
2018-08-07T12:24:01.301Z,44.81
2018-08-07T12:24:41.640Z,44.91
2018-08-07T12:25:22.324Z,44.89
2018-08-07T12:26:02.886Z,44.67
2018-08-07T12:26:43.385Z,44.64
2018-08-07T12:27:23.817Z,44.73
2018-08-07T12:28:04.381Z,44.85